createdAt,value
2022-11-10T00:00:58.381Z,1.42
2022-11-10T00:03:28.526Z,1.60
2022-11-10T00:05:56.815Z,1.48
2022-11-10T00:08:24.098Z,1.45
2022-11-10T00:11:02.171Z,2.20
2022-11-10T00:13:31.357Z,1.85
2022-11-10T00:16:18.412Z,1.38
2022-11-10T00:18:46.084Z,1.40
2022-11-10T00:21:14.941Z,1.50
2022-11-10T00:23:42.614Z,1.60
2022-11-10T00:26:17.330Z,1.35
2022-11-10T00:28:45.097Z,1.73
2022-11-10T00:31:12.811Z,1.33
2022-11-10T00:33:41.030Z,1.60
2022-11-10T00:36:08.501Z,1.40
2022-11-10T00:38:35.847Z,1.85
2022-11-10T00:41:03.581Z,1.30
2022-11-10T00:43:31.781Z,1.38
2022-11-10T00:45:59.719Z,1.73
2022-11-10T00:48:27.068Z,1.40
2022-11-10T00:50:54.576Z,1.85
2022-11-10T00:53:22.079Z,1.55
2022-11-10T00:55:49.589Z,1.50
2022-11-10T00:58:16.920Z,1.58
2022-11-10T01:00:44.381Z,1.60
2022-11-10T01:03:18.909Z,1.45
2022-11-10T01:05:46.585Z,1.50
2022-11-10T01:08:13.876Z,1.42
2022-11-10T01:10:41.272Z,1.35
2022-11-10T01:13:08.912Z,1.30
2022-11-10T01:15:39.748Z,1.88
2022-11-10T01:18:07.034Z,1.42
2022-11-10T01:20:35.081Z,1.63
2022-11-10T01:23:02.952Z,1.70
2022-11-10T01:25:30.296Z,1.40
2022-11-10T01:27:57.753Z,1.70
2022-11-10T01:30:25.129Z,1.35
2022-11-10T01:32:52.600Z,1.33
2022-11-10T01:35:20.023Z,1.88
2022-11-10T01:37:47.599Z,1.50
2022-11-10T01:40:15.007Z,1.60
2022-11-10T01:42:49.838Z,1.35
2022-11-10T01:45:23.329Z,1.48
2022-11-10T01:47:51.933Z,1.40
2022-11-10T01:50:19.576Z,1.70
2022-11-10T01:52:49.388Z,1.30
2022-11-10T01:55:17.023Z,1.70
2022-11-10T01:57:44.470Z,1.50
2022-11-10T02:00:12.214Z,1.20
2022-11-10T02:02:42.409Z,1.73
2022-11-10T02:05:10.296Z,1.75
2022-11-10T02:07:37.635Z,1.80
2022-11-10T02:10:05.660Z,1.38
2022-11-10T02:12:39.441Z,1.40
2022-11-10T02:15:08.600Z,2.03
2022-11-10T02:17:35.917Z,1.40
2022-11-10T02:20:05.316Z,1.30
2022-11-10T02:22:33.175Z,1.60
2022-11-10T02:25:00.714Z,1.60
2022-11-10T02:27:28.054Z,1.30
2022-11-10T02:29:55.598Z,1.40
2022-11-10T02:32:22.950Z,1.70
2022-11-10T02:34:50.645Z,1.50
2022-11-10T02:37:18.032Z,1.25
2022-11-10T02:39:45.380Z,1.70
2022-11-10T02:42:12.712Z,1.50
2022-11-10T02:44:43.520Z,2.05
2022-11-10T02:47:10.840Z,1.65
2022-11-10T02:49:38.381Z,1.70
2022-11-10T02:52:05.763Z,1.60
2022-11-10T02:54:33.388Z,2.00
2022-11-10T02:57:02.861Z,1.50
2022-11-10T02:59:30.217Z,1.90
2022-11-10T03:01:57.551Z,1.45
2022-11-10T03:04:24.987Z,1.65
2022-11-10T03:06:52.360Z,1.52
2022-11-10T03:09:19.840Z,1.77
2022-11-10T03:11:47.161Z,1.75
2022-11-10T03:14:14.754Z,1.40
2022-11-10T03:16:44.283Z,1.65
2022-11-10T03:19:11.634Z,2.42
2022-11-10T03:21:39.042Z,1.73
2022-11-10T03:24:06.551Z,1.65
2022-11-10T03:26:33.917Z,2.10
2022-11-10T03:29:01.284Z,1.83
2022-11-10T03:31:28.656Z,2.13
2022-11-10T03:33:55.983Z,1.98
2022-11-10T03:36:23.427Z,1.65
2022-11-10T03:38:50.742Z,1.63
2022-11-10T03:41:20.108Z,2.65
2022-11-10T03:43:48.392Z,2.22
2022-11-10T03:46:16.284Z,1.80
2022-11-10T03:48:46.305Z,1.92
2022-11-10T03:51:20.978Z,1.92
2022-11-10T03:53:48.338Z,2.03
2022-11-10T03:56:15.691Z,2.67
2022-11-10T03:58:43.269Z,1.52
2022-11-10T04:01:25.817Z,1.85
2022-11-10T04:03:53.298Z,2.13
2022-11-10T04:06:39.424Z,1.65
2022-11-10T04:09:06.910Z,1.75
2022-11-10T04:11:53.109Z,1.70
2022-11-10T04:14:39.047Z,1.50
2022-11-10T04:17:06.520Z,2.05
2022-11-10T04:19:33.833Z,1.63
2022-11-10T04:22:01.432Z,1.52
2022-11-10T04:24:28.857Z,2.00
2022-11-10T04:26:56.158Z,1.83
2022-11-10T04:29:23.528Z,1.70
2022-11-10T04:31:50.891Z,1.77
2022-11-10T04:34:18.324Z,2.33
2022-11-10T04:36:46.239Z,2.08
2022-11-10T04:39:13.918Z,1.90
2022-11-10T04:41:41.325Z,1.70
2022-11-10T04:44:08.823Z,1.92
2022-11-10T04:46:37.773Z,1.70
2022-11-10T04:49:06.071Z,2.70
2022-11-10T04:51:34.989Z,1.70
2022-11-10T04:54:02.677Z,2.30
2022-11-10T04:56:30.230Z,2.20
2022-11-10T04:58:57.656Z,2.25
2022-11-10T05:01:27.251Z,2.10
2022-11-10T05:03:55.142Z,2.22
2022-11-10T05:06:22.877Z,2.08
2022-11-10T05:08:50.469Z,2.78
2022-11-10T05:11:18.239Z,2.75
2022-11-10T05:13:46.427Z,1.92
2022-11-10T05:16:14.060Z,2.10
2022-11-10T05:18:41.940Z,2.03
2022-11-10T05:21:09.306Z,1.83
2022-11-10T05:23:39.886Z,1.95
2022-11-10T05:26:10.017Z,2.28
2022-11-10T05:28:37.600Z,2.15
2022-11-10T05:31:05.204Z,1.98
2022-11-10T05:33:32.589Z,2.00
2022-11-10T05:36:00.221Z,2.22
2022-11-10T05:38:27.559Z,1.92
2022-11-10T05:40:54.908Z,2.47
2022-11-10T05:43:22.609Z,2.22
2022-11-10T05:45:50.247Z,2.00
2022-11-10T05:48:17.627Z,2.03
2022-11-10T05:50:45.329Z,2.22
2022-11-10T05:53:13.061Z,2.00
2022-11-10T05:55:40.478Z,2.47
2022-11-10T05:58:07.814Z,2.10
2022-11-10T06:00:35.785Z,2.00
2022-11-10T06:03:04.868Z,2.35
2022-11-10T06:05:33.649Z,2.13
2022-11-10T06:08:01.588Z,2.25
2022-11-10T06:10:28.996Z,2.38
2022-11-10T06:12:56.680Z,2.42
2022-11-10T06:15:24.633Z,2.75
2022-11-10T06:17:52.312Z,2.20
2022-11-10T06:20:19.977Z,1.95
2022-11-10T06:23:11.588Z,2.20
2022-11-10T06:25:40.020Z,2.00
2022-11-10T06:28:07.916Z,2.30
2022-11-10T06:30:36.574Z,2.00
2022-11-10T06:33:04.030Z,2.40
2022-11-10T06:35:31.416Z,2.25
2022-11-10T06:38:02.699Z,2.33
2022-11-10T06:40:30.591Z,2.45
2022-11-10T06:42:58.525Z,1.98
2022-11-10T06:45:28.611Z,2.58
2022-11-10T06:48:10.573Z,2.15
2022-11-10T06:50:37.947Z,2.30
2022-11-10T06:53:05.525Z,2.13
2022-11-10T06:55:33.230Z,2.05
2022-11-10T06:58:00.602Z,2.63
2022-11-10T07:00:28.995Z,2.17
2022-11-10T07:02:59.867Z,2.20
2022-11-10T07:05:27.210Z,2.40
2022-11-10T07:07:54.590Z,1.92
2022-11-10T07:10:21.965Z,2.63
2022-11-10T07:12:49.299Z,2.55
2022-11-10T07:15:16.741Z,3.85
2022-11-10T07:17:44.073Z,2.70
2022-11-10T07:20:11.670Z,2.30
2022-11-10T07:22:39.057Z,2.30
2022-11-10T07:25:06.706Z,3.38
2022-11-10T07:27:34.326Z,2.25
2022-11-10T07:30:01.604Z,2.60
2022-11-10T07:32:29.008Z,2.58
2022-11-10T07:34:56.402Z,2.30
2022-11-10T07:37:23.767Z,2.33
2022-11-10T07:39:51.381Z,2.53
2022-11-10T07:42:18.690Z,4.50
2022-11-10T07:44:46.022Z,3.22
2022-11-10T07:47:13.346Z,4.18
2022-11-10T07:49:40.788Z,4.38
2022-11-10T07:52:08.101Z,2.70
2022-11-10T07:54:35.455Z,4.43
2022-11-10T07:57:02.771Z,2.95
2022-11-10T07:59:30.277Z,2.53
2022-11-10T08:01:57.658Z,3.08
2022-11-10T08:04:25.208Z,3.45
2022-11-10T08:06:54.657Z,2.72
2022-11-10T08:09:22.401Z,3.15
2022-11-10T08:11:49.740Z,2.70
2022-11-10T08:14:17.161Z,2.60
2022-11-10T08:16:44.486Z,3.33
2022-11-10T08:19:12.008Z,2.83
2022-11-10T08:21:39.332Z,2.50
2022-11-10T08:24:08.388Z,2.83
2022-11-10T08:26:35.927Z,2.90
2022-11-10T08:29:03.528Z,2.78
2022-11-10T08:31:31.112Z,2.85
2022-11-10T08:33:58.372Z,3.33
2022-11-10T08:36:25.790Z,2.72
2022-11-10T08:38:53.096Z,3.00
2022-11-10T08:41:20.453Z,2.40
2022-11-10T08:43:48.111Z,2.80
2022-11-10T08:46:15.495Z,3.03
2022-11-10T08:48:42.843Z,2.70
2022-11-10T08:51:10.438Z,2.25
2022-11-10T08:53:37.751Z,2.70
2022-11-10T08:56:05.352Z,2.08
2022-11-10T08:58:33.982Z,2.20
2022-11-10T09:01:01.491Z,2.83
2022-11-10T09:03:28.853Z,2.80
2022-11-10T09:05:58.869Z,2.80
2022-11-10T09:08:26.496Z,3.20
2022-11-10T09:10:53.944Z,3.25
2022-11-10T09:13:27.775Z,2.80
2022-11-10T09:15:57.660Z,2.80
2022-11-10T09:18:25.056Z,2.83
2022-11-10T09:20:52.682Z,2.45
2022-11-10T09:23:20.815Z,2.95
2022-11-10T09:25:55.667Z,2.92
2022-11-10T09:28:23.931Z,2.85
2022-11-10T09:30:52.340Z,3.15
2022-11-10T09:33:20.367Z,2.88
2022-11-10T09:35:48.410Z,2.92
2022-11-10T09:38:15.960Z,2.88
2022-11-10T09:41:05.140Z,2.70
2022-11-10T09:43:38.977Z,3.40
2022-11-10T09:46:17.466Z,2.92
2022-11-10T09:49:11.490Z,3.30
2022-11-10T09:51:48.178Z,2.90
2022-11-10T09:54:25.077Z,3.00
2022-11-10T09:56:53.661Z,2.90
2022-11-10T09:59:25.580Z,4.93
2022-11-10T10:01:59.668Z,2.90
2022-11-10T10:04:27.060Z,3.28
2022-11-10T10:07:11.947Z,2.20
2022-11-10T10:09:39.505Z,2.67
2022-11-10T10:12:13.030Z,3.05
2022-11-10T10:14:52.705Z,2.67
2022-11-10T10:17:39.814Z,2.75
2022-11-10T10:20:17.555Z,3.10
2022-11-10T10:23:09.282Z,3.05
2022-11-10T10:25:38.933Z,3.80
2022-11-10T10:28:09.008Z,2.85
2022-11-10T10:30:36.371Z,2.78
2022-11-10T10:33:15.596Z,2.80
2022-11-10T10:35:43.804Z,3.08
2022-11-10T10:38:17.247Z,3.08
2022-11-10T10:40:45.398Z,2.65
2022-11-10T10:43:13.439Z,3.42
2022-11-10T10:45:42.584Z,2.53
2022-11-10T10:48:27.004Z,3.60
2022-11-10T10:50:54.426Z,3.38
2022-11-10T10:53:23.082Z,2.47
2022-11-10T10:56:05.764Z,2.75
2022-11-10T10:58:37.785Z,3.42
2022-11-10T11:01:06.624Z,3.17
2022-11-10T11:03:40.179Z,2.72
2022-11-10T11:06:15.221Z,2.60
2022-11-10T11:09:02.581Z,3.05
2022-11-10T11:11:37.210Z,2.47
2022-11-10T11:14:14.026Z,3.13
2022-11-10T11:17:07.839Z,3.10
2022-11-10T11:19:37.261Z,3.63
2022-11-10T11:22:22.998Z,2.78
2022-11-10T11:25:05.819Z,2.40
2022-11-10T11:27:36.451Z,3.00
2022-11-10T11:30:14.871Z,3.25
2022-11-10T11:32:45.194Z,2.60
2022-11-10T11:35:25.347Z,3.15
2022-11-10T11:37:55.831Z,2.50
2022-11-10T11:40:23.176Z,2.58
2022-11-10T11:42:56.875Z,2.63
2022-11-10T11:45:27.325Z,2.35
2022-11-10T11:48:13.601Z,2.70
2022-11-10T11:50:45.383Z,3.40
2022-11-10T11:53:12.703Z,3.20
2022-11-10T11:55:58.416Z,2.70
2022-11-10T11:58:35.808Z,2.15
2022-11-10T12:01:22.003Z,2.85
2022-11-10T12:03:52.925Z,2.92
2022-11-10T12:06:38.653Z,3.22
2022-11-10T12:09:16.321Z,3.17
2022-11-10T12:11:46.740Z,2.72
2022-11-10T12:14:48.629Z,2.97
2022-11-10T12:17:34.222Z,2.63
2022-11-10T12:22:47.296Z,2.75
2022-11-10T12:25:20.042Z,2.80
2022-11-10T12:27:50.434Z,2.67
2022-11-10T12:30:21.370Z,2.47
2022-11-10T12:32:57.760Z,2.25
2022-11-10T12:35:30.698Z,3.08
2022-11-10T12:38:01.168Z,2.20
2022-11-10T12:40:36.012Z,2.45
2022-11-10T12:43:11.819Z,2.30
2022-11-10T12:45:46.287Z,2.97
2022-11-10T12:48:14.685Z,2.13
2022-11-10T12:51:00.234Z,2.47
2022-11-10T12:56:08.447Z,2.85
2022-11-10T12:58:35.878Z,2.42
2022-11-10T13:01:08.347Z,2.35
2022-11-10T13:03:37.932Z,2.03
2022-11-10T13:06:06.862Z,3.80
2022-11-10T13:08:43.372Z,2.50
2022-11-10T13:11:13.839Z,2.28
2022-11-10T13:13:59.447Z,2.38
2022-11-10T13:16:40.797Z,2.10
2022-11-10T13:19:12.126Z,1.90
2022-11-10T13:21:52.008Z,2.20
2022-11-10T13:24:19.354Z,2.42
2022-11-10T13:26:53.841Z,2.30
2022-11-10T13:29:21.210Z,2.47
2022-11-10T13:31:53.088Z,3.03
2022-11-10T13:34:20.413Z,2.17
2022-11-10T13:36:48.828Z,2.88
2022-11-10T13:39:27.133Z,2.03
2022-11-10T13:42:01.186Z,2.67
2022-11-10T13:44:28.529Z,2.08
2022-11-10T13:47:02.816Z,2.30
2022-11-10T13:49:30.403Z,2.30
2022-11-10T13:52:21.253Z,2.33
2022-11-10T13:54:53.182Z,2.92
2022-11-10T13:57:27.126Z,2.20
2022-11-10T14:00:00.487Z,2.33
2022-11-10T14:02:34.043Z,2.33
2022-11-10T14:05:01.967Z,2.95
2022-11-10T14:07:44.128Z,2.05
2022-11-10T14:10:17.109Z,2.42
2022-11-10T14:12:51.080Z,2.70
2022-11-10T14:15:19.960Z,1.95
2022-11-10T14:17:55.881Z,2.53
2022-11-10T14:20:36.000Z,2.17
2022-11-10T14:23:06.050Z,2.15
2022-11-10T14:25:42.745Z,2.95
2022-11-10T14:28:25.891Z,1.80
2022-11-10T14:30:54.297Z,3.30
2022-11-10T14:33:22.173Z,2.33
2022-11-10T14:35:51.325Z,2.70
2022-11-10T14:38:26.342Z,2.35
2022-11-10T14:40:58.321Z,2.63
2022-11-10T14:43:27.284Z,3.08
2022-11-10T14:45:54.720Z,3.22
2022-11-10T14:48:23.964Z,4.40
2022-11-10T14:50:52.783Z,4.07
2022-11-10T14:53:22.189Z,2.85
2022-11-10T14:55:54.682Z,2.15
2022-11-10T14:58:25.871Z,2.20
2022-11-10T15:00:53.917Z,2.17
2022-11-10T15:03:31.887Z,2.67
2022-11-10T15:05:59.578Z,2.78
2022-11-10T15:08:27.804Z,2.35
2022-11-10T15:10:56.511Z,2.25
2022-11-10T15:13:44.148Z,2.92
2022-11-10T15:16:25.800Z,2.78
2022-11-10T15:18:55.054Z,1.80
2022-11-10T15:21:23.703Z,1.75
2022-11-10T15:23:55.531Z,2.53
2022-11-10T15:26:24.723Z,2.55
2022-11-10T15:28:52.665Z,2.88
2022-11-10T15:31:23.502Z,2.25
2022-11-10T15:33:52.342Z,1.73
2022-11-10T15:36:27.569Z,2.75
2022-11-10T15:39:07.337Z,2.58
2022-11-10T15:41:35.751Z,2.25
2022-11-10T15:44:23.415Z,2.75
2022-11-10T15:46:55.799Z,2.00
2022-11-10T15:49:33.525Z,2.42
2022-11-10T15:52:02.891Z,1.98
2022-11-10T15:54:31.045Z,2.55
2022-11-10T15:56:58.538Z,2.08
2022-11-10T15:59:25.906Z,2.38
2022-11-10T16:01:53.423Z,2.28
2022-11-10T16:04:20.829Z,2.80
2022-11-10T16:06:48.243Z,2.35
2022-11-10T16:09:15.698Z,3.35
2022-11-10T16:11:44.320Z,3.80
2022-11-10T16:14:15.199Z,3.63
2022-11-10T16:16:42.976Z,3.03
2022-11-10T16:19:11.166Z,3.00
2022-11-10T16:21:38.663Z,2.03
2022-11-10T16:24:06.295Z,3.22
2022-11-10T16:26:34.703Z,3.08
2022-11-10T16:29:02.242Z,2.28
2022-11-10T16:31:31.855Z,2.92
2022-11-10T16:33:59.377Z,2.45
2022-11-10T16:36:28.178Z,2.50
2022-11-10T16:38:56.080Z,3.70
2022-11-10T16:41:23.913Z,2.00
2022-11-10T16:43:54.049Z,2.17
2022-11-10T16:46:26.791Z,1.90
2022-11-10T16:48:56.494Z,2.08
2022-11-10T16:51:31.531Z,1.70
2022-11-10T16:53:59.961Z,1.65
2022-11-10T16:56:27.729Z,2.03
2022-11-10T16:58:55.318Z,1.45
2022-11-10T17:01:28.967Z,2.10
2022-11-10T17:03:58.575Z,1.63
2022-11-10T17:06:27.293Z,3.28
2022-11-10T17:08:57.758Z,4.43
2022-11-10T17:11:25.084Z,3.92
2022-11-10T17:13:52.704Z,5.22
2022-11-10T17:16:23.132Z,4.75
2022-11-10T17:18:51.276Z,4.50
2022-11-10T17:21:19.196Z,4.03
2022-11-10T17:23:46.904Z,4.00
2022-11-10T17:26:15.806Z,3.67
2022-11-10T17:28:43.121Z,4.50
2022-11-10T17:31:11.568Z,4.00
2022-11-10T17:33:38.866Z,4.07
2022-11-10T17:36:07.261Z,3.50
2022-11-10T17:38:34.782Z,3.90
2022-11-10T17:41:02.218Z,4.90
2022-11-10T17:43:29.558Z,3.00
2022-11-10T17:45:57.139Z,3.80
2022-11-10T17:48:24.540Z,3.28
2022-11-10T17:50:51.853Z,3.30
2022-11-10T17:53:23.575Z,3.17
2022-11-10T17:55:51.676Z,3.60
2022-11-10T17:58:19.463Z,3.17
2022-11-10T18:00:47.040Z,3.17
2022-11-10T18:03:15.327Z,2.92
2022-11-10T18:05:43.308Z,2.65
2022-11-10T18:08:11.100Z,2.67
2022-11-10T18:10:41.792Z,2.80
2022-11-10T18:13:10.219Z,3.00
2022-11-10T18:15:37.508Z,2.78
2022-11-10T18:18:05.003Z,3.30
2022-11-10T18:20:32.353Z,3.38
2022-11-10T18:23:06.656Z,3.35
2022-11-10T18:25:47.480Z,2.72
2022-11-10T18:28:16.381Z,2.83
2022-11-10T18:30:44.227Z,13.52
2022-11-10T18:33:12.278Z,7.20
2022-11-10T18:35:40.316Z,12.43
2022-11-10T18:38:08.260Z,11.13
2022-11-10T18:40:35.599Z,14.32
2022-11-10T18:43:07.198Z,19.23
2022-11-10T18:45:36.113Z,19.75
2022-11-10T18:48:03.897Z,12.57
2022-11-10T18:50:31.626Z,9.70
2022-11-10T18:52:59.196Z,10.80
2022-11-10T18:55:26.677Z,13.13
2022-11-10T18:57:54.069Z,9.68
2022-11-10T19:00:21.674Z,7.38
2022-11-10T19:02:49.294Z,6.45
2022-11-10T19:05:16.836Z,7.60
2022-11-10T19:07:44.630Z,7.75
2022-11-10T19:10:12.149Z,7.35
2022-11-10T19:12:39.530Z,5.82
2022-11-10T19:15:07.065Z,5.80
2022-11-10T19:17:34.430Z,5.63
2022-11-10T19:20:03.015Z,5.85
2022-11-10T19:22:33.492Z,6.25
2022-11-10T19:25:09.081Z,6.38
2022-11-10T19:27:37.003Z,8.88
2022-11-10T19:30:04.878Z,15.02
2022-11-10T19:32:32.456Z,10.43
2022-11-10T19:34:59.811Z,9.70
2022-11-10T19:37:32.015Z,8.43
2022-11-10T19:40:01.831Z,10.00
2022-11-10T19:42:29.186Z,9.80
2022-11-10T19:44:56.525Z,11.02
2022-11-10T19:47:23.833Z,10.00
2022-11-10T19:49:51.545Z,12.93
2022-11-10T19:52:18.855Z,12.68
2022-11-10T19:54:46.321Z,12.77
2022-11-10T19:57:13.699Z,17.48
2022-11-10T19:59:41.047Z,15.65
2022-11-10T20:02:08.449Z,14.55
2022-11-10T20:04:55.802Z,12.63
2022-11-10T20:07:41.859Z,16.80
2022-11-10T20:10:09.542Z,14.95
2022-11-10T20:12:36.957Z,12.73
2022-11-10T20:15:04.418Z,23.30
2022-11-10T20:17:31.822Z,15.95
2022-11-10T20:19:59.311Z,15.35
2022-11-10T20:22:26.617Z,14.38
2022-11-10T20:24:56.348Z,9.27
2022-11-10T20:27:23.688Z,8.70
2022-11-10T20:29:51.596Z,10.32
2022-11-10T20:32:19.060Z,11.80
2022-11-10T20:34:48.366Z,10.20
2022-11-10T20:37:15.711Z,9.95
2022-11-10T20:39:43.130Z,10.95
2022-11-10T20:42:14.251Z,12.23
2022-11-10T20:44:41.810Z,11.57
2022-11-10T20:47:09.273Z,14.82
2022-11-10T20:49:36.704Z,11.27
2022-11-10T20:52:04.169Z,12.30
2022-11-10T20:54:31.635Z,13.10
2022-11-10T20:56:59.025Z,11.65
2022-11-10T20:59:26.554Z,12.57
2022-11-10T21:01:54.057Z,9.70
2022-11-10T21:04:21.555Z,11.48
2022-11-10T21:06:49.010Z,12.10
2022-11-10T21:09:16.559Z,10.20
2022-11-10T21:12:19.372Z,9.60
2022-11-10T21:14:46.790Z,9.98
2022-11-10T21:17:14.438Z,10.63
2022-11-10T21:19:41.763Z,10.20
2022-11-10T21:22:09.117Z,9.65
2022-11-10T21:24:36.415Z,9.45
2022-11-10T21:27:04.729Z,9.10
2022-11-10T21:29:32.196Z,9.15
2022-11-10T21:31:59.538Z,9.98
2022-11-10T21:34:26.941Z,8.02
2022-11-10T21:36:54.430Z,8.43
2022-11-10T21:39:21.908Z,8.10
2022-11-10T21:41:49.404Z,7.70
2022-11-10T21:44:16.952Z,7.63
2022-11-10T21:46:44.359Z,7.00
2022-11-10T21:49:11.934Z,6.50
2022-11-10T21:51:39.361Z,6.93
2022-11-10T21:54:06.944Z,6.05
2022-11-10T21:56:34.315Z,7.20
2022-11-10T21:59:01.834Z,6.00
2022-11-10T22:01:29.260Z,6.32
2022-11-10T22:03:56.706Z,8.20
2022-11-10T22:06:44.170Z,7.45
2022-11-10T22:09:11.621Z,6.93
2022-11-10T22:11:57.843Z,6.90
2022-11-10T22:14:44.029Z,6.88
2022-11-10T22:17:48.807Z,5.95
2022-11-10T22:20:16.713Z,5.72
2022-11-10T22:22:44.417Z,5.82
2022-11-10T22:25:11.773Z,7.15
2022-11-10T22:27:39.212Z,7.05
2022-11-10T22:30:07.022Z,6.28
2022-11-10T22:32:34.554Z,6.25
2022-11-10T22:35:02.048Z,6.10
2022-11-10T22:37:33.373Z,6.60
2022-11-10T22:40:22.611Z,6.40
2022-11-10T22:43:08.809Z,6.25
2022-11-10T22:45:36.321Z,6.18
2022-11-10T22:48:22.171Z,6.53
2022-11-10T22:50:56.298Z,6.13
2022-11-10T22:53:24.872Z,6.65
2022-11-10T22:55:59.690Z,6.38
2022-11-10T22:58:27.054Z,5.13
2022-11-10T23:00:54.598Z,6.28
2022-11-10T23:03:22.126Z,5.72
2022-11-10T23:05:56.410Z,5.72
2022-11-10T23:08:23.951Z,5.30
2022-11-10T23:10:57.669Z,4.82
2022-11-10T23:13:25.316Z,5.95
2022-11-10T23:15:54.503Z,5.55
2022-11-10T23:18:22.084Z,4.72
2022-11-10T23:20:49.793Z,5.03
2022-11-10T23:23:17.112Z,6.20
2022-11-10T23:25:44.507Z,5.03
2022-11-10T23:28:11.867Z,5.70
2022-11-10T23:30:39.218Z,5.40
2022-11-10T23:33:06.586Z,5.10
2022-11-10T23:35:34.163Z,4.60
2022-11-10T23:38:02.647Z,4.45
2022-11-10T23:40:30.394Z,4.85
2022-11-10T23:42:57.688Z,5.07
2022-11-10T23:45:29.747Z,4.38
2022-11-10T23:48:06.829Z,5.45
2022-11-10T23:50:34.607Z,5.88
2022-11-10T23:53:01.989Z,5.05
2022-11-10T23:55:29.438Z,4.18
2022-11-10T23:57:56.745Z,3.97
